sensor_id;sensor_type;location;lat;lon;timestamp;pressure;altitude;pressure_sealevel;temperature;humidity
80321;BME280;69633;47.066;15.450;2023-06-01T00:00:36;97795.94;;;18.90;59.16
80321;BME280;69633;47.066;15.450;2023-06-01T00:03:03;97801.31;;;18.86;59.26
80321;BME280;69633;47.066;15.450;2023-06-01T00:05:29;97801.69;;;18.85;59.21
80321;BME280;69633;47.066;15.450;2023-06-01T00:07:55;97795.91;;;18.86;59.24
80321;BME280;69633;47.066;15.450;2023-06-01T00:10:20;97795.91;;;18.86;59.17
80321;BME280;69633;47.066;15.450;2023-06-01T00:12:46;97792.84;;;18.84;59.20
80321;BME280;69633;47.066;15.450;2023-06-01T00:15:11;97791.69;;;18.81;59.12
80321;BME280;69633;47.066;15.450;2023-06-01T00:17:38;97784.38;;;18.82;59.34
80321;BME280;69633;47.066;15.450;2023-06-01T00:20:06;97789.00;;;18.81;59.22
80321;BME280;69633;47.066;15.450;2023-06-01T00:22:34;97790.91;;;18.81;59.34
80321;BME280;69633;47.066;15.450;2023-06-01T00:25:09;97793.19;;;18.79;59.23
80321;BME280;69633;47.066;15.450;2023-06-01T00:27:34;97798.19;;;18.77;59.24
80321;BME280;69633;47.066;15.450;2023-06-01T00:30:00;97797.00;;;18.71;59.34
80321;BME280;69633;47.066;15.450;2023-06-01T00:32:27;97789.28;;;18.62;59.51
80321;BME280;69633;47.066;15.450;2023-06-01T00:34:54;97784.22;;;18.57;59.54
80321;BME280;69633;47.066;15.450;2023-06-01T00:37:20;97782.31;;;18.58;59.53
80321;BME280;69633;47.066;15.450;2023-06-01T00:39:45;97789.63;;;18.57;59.45
80321;BME280;69633;47.066;15.450;2023-06-01T00:42:11;97779.63;;;18.58;59.47
80321;BME280;69633;47.066;15.450;2023-06-01T00:44:36;97783.44;;;18.53;59.48
80321;BME280;69633;47.066;15.450;2023-06-01T00:47:03;97786.50;;;18.52;59.60
80321;BME280;69633;47.066;15.450;2023-06-01T00:49:30;97782.69;;;18.56;59.16
80321;BME280;69633;47.066;15.450;2023-06-01T00:51:55;97777.72;;;18.58;58.98
80321;BME280;69633;47.066;15.450;2023-06-01T00:54:22;97776.56;;;18.56;58.87
80321;BME280;69633;47.066;15.450;2023-06-01T00:56:48;97771.19;;;18.59;58.86
80321;BME280;69633;47.066;15.450;2023-06-01T00:59:14;97774.22;;;18.54;58.82
80321;BME280;69633;47.066;15.450;2023-06-01T01:01:41;97781.16;;;18.55;58.90
80321;BME280;69633;47.066;15.450;2023-06-01T01:04:10;97785.75;;;18.51;59.05
80321;BME280;69633;47.066;15.450;2023-06-01T01:07:06;97780.31;;;18.48;59.02
80321;BME280;69633;47.066;15.450;2023-06-01T01:15:29;97777.41;;;18.67;58.84
80321;BME280;69633;47.066;15.450;2023-06-01T01:18:02;97775.03;;;18.58;59.19
80321;BME280;69633;47.066;15.450;2023-06-01T01:20:36;97778.91;;;18.64;58.45
80321;BME280;69633;47.066;15.450;2023-06-01T01:28:35;97786.22;;;18.71;58.93
80321;BME280;69633;47.066;15.450;2023-06-01T01:31:04;97785.47;;;18.70;58.58
80321;BME280;69633;47.066;15.450;2023-06-01T01:33:31;97780.50;;;18.72;58.77
80321;BME280;69633;47.066;15.450;2023-06-01T01:35:59;97775.41;;;18.60;58.93
80321;BME280;69633;47.066;15.450;2023-06-01T01:38:25;97772.31;;;18.55;59.06
80321;BME280;69633;47.066;15.450;2023-06-01T01:40:51;97769.25;;;18.56;58.75
80321;BME280;69633;47.066;15.450;2023-06-01T01:43:19;97766.91;;;18.51;58.82
80321;BME280;69633;47.066;15.450;2023-06-01T01:45:48;97766.91;;;18.51;59.04
80321;BME280;69633;47.066;15.450;2023-06-01T01:48:28;97761.53;;;18.51;59.00
80321;BME280;69633;47.066;15.450;2023-06-01T01:51:02;97766.91;;;18.51;59.28
80321;BME280;69633;47.066;15.450;2023-06-01T01:53:31;97763.41;;;18.47;59.63
80321;BME280;69633;47.066;15.450;2023-06-01T01:55:58;97762.59;;;18.43;59.69
80321;BME280;69633;47.066;15.450;2023-06-01T01:58:27;97763.75;;;18.42;59.78
80321;BME280;69633;47.066;15.450;2023-06-01T02:00:54;97754.13;;;18.41;59.76
80321;BME280;69633;47.066;15.450;2023-06-01T02:03:21;97757.13;;;18.29;59.76
80321;BME280;69633;47.066;15.450;2023-06-01T02:05:47;97755.53;;;18.21;59.60
80321;BME280;69633;47.066;15.450;2023-06-01T02:08:14;97750.91;;;18.14;60.04
80321;BME280;69633;47.066;15.450;2023-06-01T02:10:39;97750.06;;;18.07;60.22
80321;BME280;69633;47.066;15.450;2023-06-01T02:13:07;97752.31;;;18.01;60.47
80321;BME280;69633;47.066;15.450;2023-06-01T02:15:33;97756.47;;;17.92;60.64
80321;BME280;69633;47.066;15.450;2023-06-01T02:17:58;97750.63;;;17.82;60.72
80321;BME280;69633;47.066;15.450;2023-06-01T02:20:24;97742.91;;;17.81;60.99
80321;BME280;69633;47.066;15.450;2023-06-01T02:22:50;97739.06;;;17.78;61.22
80321;BME280;69633;47.066;15.450;2023-06-01T02:25:15;97748.28;;;17.81;60.79
80321;BME280;69633;47.066;15.450;2023-06-01T02:27:41;97736.41;;;17.82;61.06
80321;BME280;69633;47.066;15.450;2023-06-01T02:30:07;97739.47;;;17.80;61.17
80321;BME280;69633;47.066;15.450;2023-06-01T02:32:33;97739.06;;;17.78;61.59
80321;BME280;69633;47.066;15.450;2023-06-01T02:35:00;97735.25;;;17.79;61.46
80321;BME280;69633;47.066;15.450;2023-06-01T02:37:27;97733.25;;;17.69;62.18
80321;BME280;69633;47.066;15.450;2023-06-01T02:39:54;97739.34;;;17.66;62.39
80321;BME280;69633;47.066;15.450;2023-06-01T02:42:20;97737.00;;;17.61;62.60
80321;BME280;69633;47.066;15.450;2023-06-01T02:44:45;97736.19;;;17.57;62.57
80321;BME280;69633;47.066;15.450;2023-06-01T02:47:11;97737.66;;;17.55;62.72
80321;BME280;69633;47.066;15.450;2023-06-01T02:49:37;97734.53;;;17.49;63.03
80321;BME280;69633;47.066;15.450;2023-06-01T02:52:02;97729.47;;;17.40;63.41
80321;BME280;69633;47.066;15.450;2023-06-01T02:54:29;97730.91;;;17.31;63.74
80321;BME280;69633;47.066;15.450;2023-06-01T02:56:56;97734.66;;;17.23;64.01
80321;BME280;69633;47.066;15.450;2023-06-01T02:59:23;97730.38;;;17.18;64.39
80321;BME280;69633;47.066;15.450;2023-06-01T03:01:48;97722.34;;;17.18;64.34
80321;BME280;69633;47.066;15.450;2023-06-01T03:04:14;97723.84;;;17.16;64.04
80321;BME280;69633;47.066;15.450;2023-06-01T03:06:40;97727.66;;;17.15;64.07
80321;BME280;69633;47.066;15.450;2023-06-01T03:09:06;97728.44;;;17.15;64.03
80321;BME280;69633;47.066;15.450;2023-06-01T03:11:42;97729.56;;;17.14;64.33
80321;BME280;69633;47.066;15.450;2023-06-01T03:14:08;97731.09;;;17.12;64.02
80321;BME280;69633;47.066;15.450;2023-06-01T03:16:34;97726.06;;;17.10;64.00
80321;BME280;69633;47.066;15.450;2023-06-01T03:19:01;97731.84;;;17.12;64.00
80321;BME280;69633;47.066;15.450;2023-06-01T03:21:27;97735.66;;;17.11;63.97
80321;BME280;69633;47.066;15.450;2023-06-01T03:23:53;97729.94;;;17.13;63.77
80321;BME280;69633;47.066;15.450;2023-06-01T03:26:19;97728.41;;;17.12;63.79
80321;BME280;69633;47.066;15.450;2023-06-01T03:28:47;97730.72;;;17.13;63.56
80321;BME280;69633;47.066;15.450;2023-06-01T03:31:13;97731.47;;;17.14;63.46
80321;BME280;69633;47.066;15.450;2023-06-01T03:33:39;97730.75;;;17.17;63.50
80321;BME280;69633;47.066;15.450;2023-06-01T03:36:06;97729.28;;;17.23;63.33
80321;BME280;69633;47.066;15.450;2023-06-01T03:38:32;97736.53;;;17.19;63.59
80321;BME280;69633;47.066;15.450;2023-06-01T03:40:58;97730.09;;;17.27;63.43
80321;BME280;69633;47.066;15.450;2023-06-01T03:43:23;97734.34;;;17.28;63.43
80321;BME280;69633;47.066;15.450;2023-06-01T03:45:48;97738.81;;;17.17;63.94
80321;BME280;69633;47.066;15.450;2023-06-01T03:48:18;97740.72;;;17.16;64.03
80321;BME280;69633;47.066;15.450;2023-06-01T03:50:43;97738.06;;;17.20;64.09
80321;BME280;69633;47.066;15.450;2023-06-01T03:53:09;97741.88;;;17.19;64.00
80321;BME280;69633;47.066;15.450;2023-06-01T03:55:34;97739.16;;;17.15;64.34
80321;BME280;69633;47.066;15.450;2023-06-01T03:58:01;97737.66;;;17.18;64.31
80321;BME280;69633;47.066;15.450;2023-06-01T04:00:28;97746.13;;;17.20;64.08
80321;BME280;69633;47.066;15.450;2023-06-01T04:02:56;97736.88;;;17.17;64.26
80321;BME280;69633;47.066;15.450;2023-06-01T04:05:23;97744.31;;;16.98;65.26
80321;BME280;69633;47.066;15.450;2023-06-01T04:07:51;97737.56;;;16.77;66.15
80321;BME280;69633;47.066;15.450;2023-06-01T04:10:17;97740.44;;;16.65;66.64
80321;BME280;69633;47.066;15.450;2023-06-01T04:12:44;97744.38;;;16.71;66.38
80321;BME280;69633;47.066;15.450;2023-06-01T04:15:11;97739.00;;;16.71;66.33
80321;BME280;69633;47.066;15.450;2023-06-01T04:17:38;97739.78;;;16.72;66.17
80321;BME280;69633;47.066;15.450;2023-06-01T04:20:05;97741.31;;;16.73;66.36
80321;BME280;69633;47.066;15.450;2023-06-01T04:22:33;97738.59;;;16.69;66.33
80321;BME280;69633;47.066;15.450;2023-06-01T04:24:58;97731.06;;;16.78;65.94
80321;BME280;69633;47.066;15.450;2023-06-01T04:27:25;97731.22;;;16.92;65.49
80321;BME280;69633;47.066;15.450;2023-06-01T04:29:53;97726.38;;;17.02;65.13
80321;BME280;69633;47.066;15.450;2023-06-01T04:32:19;97725.69;;;17.08;64.39
80321;BME280;69633;47.066;15.450;2023-06-01T04:34:48;97719.66;;;17.18;64.09
80321;BME280;69633;47.066;15.450;2023-06-01T04:37:16;97718.56;;;17.23;63.04
80321;BME280;69633;47.066;15.450;2023-06-01T04:39:51;97727.09;;;17.32;62.59
80321;BME280;69633;47.066;15.450;2023-06-01T04:42:24;97720.00;;;17.50;62.43
80321;BME280;69633;47.066;15.450;2023-06-01T04:44:49;97721.63;;;17.58;62.10
80321;BME280;69633;47.066;15.450;2023-06-01T04:47:15;97727.38;;;17.57;62.26
80321;BME280;69633;47.066;15.450;2023-06-01T04:49:46;97735.09;;;17.62;61.79
80321;BME280;69633;47.066;15.450;2023-06-01T04:52:13;97738.94;;;17.64;61.53
80321;BME280;69633;47.066;15.450;2023-06-01T04:54:38;97725.91;;;17.66;61.30
80321;BME280;69633;47.066;15.450;2023-06-01T04:57:04;97729.75;;;17.65;61.41
80321;BME280;69633;47.066;15.450;2023-06-01T04:59:33;97728.19;;;17.61;61.49
80321;BME280;69633;47.066;15.450;2023-06-01T05:01:59;97725.75;;;17.52;61.51
80321;BME280;69633;47.066;15.450;2023-06-01T05:04:25;97720.38;;;17.52;61.31
80321;BME280;69633;47.066;15.450;2023-06-01T05:06:51;97727.47;;;17.67;61.12
80321;BME280;69633;47.066;15.450;2023-06-01T05:09:18;97727.94;;;17.76;60.71
80321;BME280;69633;47.066;15.450;2023-06-01T05:11:44;97723.03;;;17.89;60.43
80321;BME280;69633;47.066;15.450;2023-06-01T05:14:11;97730.47;;;18.03;60.14
80321;BME280;69633;47.066;15.450;2023-06-01T05:16:38;97728.59;;;18.10;59.81
80321;BME280;69633;47.066;15.450;2023-06-01T05:19:03;97725.19;;;18.17;59.15
80321;BME280;69633;47.066;15.450;2023-06-01T05:21:29;97731.44;;;18.35;58.75
80321;BME280;69633;47.066;15.450;2023-06-01T05:23:57;97722.59;;;18.31;59.17
80321;BME280;69633;47.066;15.450;2023-06-01T05:26:23;97734.88;;;18.32;59.26
80321;BME280;69633;47.066;15.450;2023-06-01T05:28:50;97732.97;;;18.29;59.09
80321;BME280;69633;47.066;15.450;2023-06-01T05:31:16;97727.22;;;18.34;59.12
80321;BME280;69633;47.066;15.450;2023-06-01T05:33:43;97733.00;;;18.36;58.99
80321;BME280;69633;47.066;15.450;2023-06-01T05:36:09;97728.75;;;18.31;58.98
80321;BME280;69633;47.066;15.450;2023-06-01T05:38:35;97727.63;;;18.36;59.24
80321;BME280;69633;47.066;15.450;2023-06-01T05:41:00;97725.03;;;18.50;58.80
80321;BME280;69633;47.066;15.450;2023-06-01T05:43:26;97728.19;;;18.59;58.33
80321;BME280;69633;47.066;15.450;2023-06-01T05:45:51;97727.47;;;18.69;57.98
80321;BME280;69633;47.066;15.450;2023-06-01T05:48:16;97726.69;;;18.72;58.05
80321;BME280;69633;47.066;15.450;2023-06-01T05:50:43;97724.00;;;18.72;58.22
80321;BME280;69633;47.066;15.450;2023-06-01T05:53:09;97721.31;;;18.72;58.12
80321;BME280;69633;47.066;15.450;2023-06-01T05:55:34;97718.28;;;18.77;57.88
80321;BME280;69633;47.066;15.450;2023-06-01T05:58:00;97721.41;;;18.94;57.81
80321;BME280;69633;47.066;15.450;2023-06-01T06:00:26;97721.06;;;19.02;57.47
80321;BME280;69633;47.066;15.450;2023-06-01T06:02:53;97719.97;;;19.24;57.04
80321;BME280;69633;47.066;15.450;2023-06-01T06:05:19;97725.44;;;19.42;56.87
80321;BME280;69633;47.066;15.450;2023-06-01T06:07:44;97733.16;;;19.58;56.25
80321;BME280;69633;47.066;15.450;2023-06-01T06:10:11;97722.81;;;19.85;55.55
80321;BME280;69633;47.066;15.450;2023-06-01T06:12:39;97725.91;;;19.94;55.64
80321;BME280;69633;47.066;15.450;2023-06-01T06:15:05;97730.13;;;20.09;55.43
80321;BME280;69633;47.066;15.450;2023-06-01T06:17:31;97727.03;;;20.14;55.43
80321;BME280;69633;47.066;15.450;2023-06-01T06:19:58;97737.06;;;20.31;55.11
80321;BME280;69633;47.066;15.450;2023-06-01T06:22:26;97730.91;;;20.38;54.54
80321;BME280;69633;47.066;15.450;2023-06-01T06:24:53;97736.66;;;20.25;55.05
80321;BME280;69633;47.066;15.450;2023-06-01T06:27:19;97734.72;;;20.54;54.11
80321;BME280;69633;47.066;15.450;2023-06-01T06:29:46;97731.09;;;20.96;53.38
80321;BME280;69633;47.066;15.450;2023-06-01T06:32:11;97733.88;;;20.79;52.84
80321;BME280;69633;47.066;15.450;2023-06-01T06:34:36;97729.16;;;21.04;52.85
80321;BME280;69633;47.066;15.450;2023-06-01T06:37:06;97729.13;;;21.07;51.85
80321;BME280;69633;47.066;15.450;2023-06-01T06:39:32;97726.88;;;20.99;52.09
80321;BME280;69633;47.066;15.450;2023-06-01T06:41:59;97733.78;;;21.03;51.96
80321;BME280;69633;47.066;15.450;2023-06-01T06:44:27;97730.97;;;21.35;51.50
80321;BME280;69633;47.066;15.450;2023-06-01T06:46:53;97723.00;;;21.73;50.61
80321;BME280;69633;47.066;15.450;2023-06-01T06:49:19;97727.47;;;22.00;50.29
80321;BME280;69633;47.066;15.450;2023-06-01T06:51:45;97733.28;;;22.40;48.84
80321;BME280;69633;47.066;15.450;2023-06-01T06:54:11;97718.03;;;22.60;47.84
80321;BME280;69633;47.066;15.450;2023-06-01T06:56:38;97715.44;;;22.87;47.11
80321;BME280;69633;47.066;15.450;2023-06-01T06:59:03;97715.91;;;23.12;46.72
80321;BME280;69633;47.066;15.450;2023-06-01T07:01:29;97719.13;;;23.30;46.30
80321;BME280;69633;47.066;15.450;2023-06-01T07:03:54;97715.13;;;23.42;45.86
80321;BME280;69633;47.066;15.450;2023-06-01T07:06:21;97719.94;;;23.57;45.64
80321;BME280;69633;47.066;15.450;2023-06-01T07:08:48;97720.34;;;23.83;44.27
80321;BME280;69633;47.066;15.450;2023-06-01T07:11:20;97712.22;;;24.06;43.39
80321;BME280;69633;47.066;15.450;2023-06-01T07:13:46;97721.31;;;24.19;42.22
80321;BME280;69633;47.066;15.450;2023-06-01T07:16:11;97714.72;;;24.20;42.12
80321;BME280;69633;47.066;15.450;2023-06-01T07:18:37;97717.53;;;24.13;40.49
80321;BME280;69633;47.066;15.450;2023-06-01T07:21:02;97714.25;;;23.75;39.14
80321;BME280;69633;47.066;15.450;2023-06-01T07:23:28;97715.69;;;23.56;38.65
80321;BME280;69633;47.066;15.450;2023-06-01T07:25:54;97718.81;;;24.05;39.23
80321;BME280;69633;47.066;15.450;2023-06-01T07:28:21;97718.66;;;24.39;38.92
80321;BME280;69633;47.066;15.450;2023-06-01T07:30:53;97718.91;;;25.07;38.35
80321;BME280;69633;47.066;15.450;2023-06-01T07:33:19;97720.78;;;25.10;37.83
80321;BME280;69633;47.066;15.450;2023-06-01T07:35:45;97717.03;;;25.04;38.19
80321;BME280;69633;47.066;15.450;2023-06-01T07:38:13;97719.38;;;25.22;38.12
80321;BME280;69633;47.066;15.450;2023-06-01T07:40:41;97721.09;;;25.52;37.81
80321;BME280;69633;47.066;15.450;2023-06-01T07:43:06;97727.56;;;26.06;37.07
80321;BME280;69633;47.066;15.450;2023-06-01T07:45:35;97716.03;;;26.18;36.87
80321;BME280;69633;47.066;15.450;2023-06-01T07:48:01;97716.00;;;26.02;37.47
80321;BME280;69633;47.066;15.450;2023-06-01T07:50:30;97722.59;;;26.50;36.97
80321;BME280;69633;47.066;15.450;2023-06-01T07:52:59;97725.38;;;26.62;36.75
80321;BME280;69633;47.066;15.450;2023-06-01T07:55:25;97715.38;;;26.88;36.08
80321;BME280;69633;47.066;15.450;2023-06-01T07:57:52;97715.28;;;27.04;36.11
80321;BME280;69633;47.066;15.450;2023-06-01T08:00:18;97708.75;;;27.02;36.22
80321;BME280;69633;47.066;15.450;2023-06-01T08:02:44;97708.00;;;27.26;35.83
80321;BME280;69633;47.066;15.450;2023-06-01T08:05:12;97709.16;;;27.00;35.98
80321;BME280;69633;47.066;15.450;2023-06-01T08:07:39;97702.66;;;27.23;35.50
80321;BME280;69633;47.066;15.450;2023-06-01T08:10:07;97705.47;;;26.94;36.43
80321;BME280;69633;47.066;15.450;2023-06-01T08:12:34;97707.75;;;26.96;36.45
80321;BME280;69633;47.066;15.450;2023-06-01T08:15:02;97703.13;;;26.80;35.71
80321;BME280;69633;47.066;15.450;2023-06-01T08:17:29;97704.34;;;26.63;36.52
80321;BME280;69633;47.066;15.450;2023-06-01T08:19:56;97704.81;;;26.74;36.38
80321;BME280;69633;47.066;15.450;2023-06-01T08:22:23;97706.38;;;26.46;36.79
80321;BME280;69633;47.066;15.450;2023-06-01T08:24:49;97709.78;;;26.63;36.78
80321;BME280;69633;47.066;15.450;2023-06-01T08:27:19;97705.22;;;26.60;36.77
80321;BME280;69633;47.066;15.450;2023-06-01T08:29:46;97703.69;;;26.59;36.99
80321;BME280;69633;47.066;15.450;2023-06-01T08:32:13;97696.50;;;26.36;37.26
80321;BME280;69633;47.066;15.450;2023-06-01T08:34:39;97687.53;;;26.52;37.54
80321;BME280;69633;47.066;15.450;2023-06-01T08:37:04;97685.94;;;26.83;37.11
80321;BME280;69633;47.066;15.450;2023-06-01T08:39:30;97695.88;;;27.15;36.35
80321;BME280;69633;47.066;15.450;2023-06-01T08:44:41;97684.47;;;27.83;35.77
80321;BME280;69633;47.066;15.450;2023-06-01T08:47:08;97691.88;;;27.95;35.52
80321;BME280;69633;47.066;15.450;2023-06-01T08:49:35;97687.75;;;27.53;35.76
80321;BME280;69633;47.066;15.450;2023-06-01T08:52:12;97681.97;;;27.25;35.72
80321;BME280;69633;47.066;15.450;2023-06-01T08:54:39;97690.59;;;26.54;36.64
80321;BME280;69633;47.066;15.450;2023-06-01T08:57:06;97686.97;;;26.73;36.93
80321;BME280;69633;47.066;15.450;2023-06-01T08:59:35;97682.69;;;27.01;36.32
80321;BME280;69633;47.066;15.450;2023-06-01T09:02:02;97686.28;;;26.98;35.89
80321;BME280;69633;47.066;15.450;2023-06-01T09:04:28;97682.34;;;26.86;36.58
80321;BME280;69633;47.066;15.450;2023-06-01T09:06:57;97679.75;;;26.95;36.16
80321;BME280;69633;47.066;15.450;2023-06-01T09:09:23;97679.34;;;27.22;35.76
80321;BME280;69633;47.066;15.450;2023-06-01T09:12:22;97670.91;;;27.92;34.74
80321;BME280;69633;47.066;15.450;2023-06-01T09:17:33;97670.56;;;28.03;34.08
80321;BME280;69633;47.066;15.450;2023-06-01T09:20:00;97666.38;;;27.38;35.35
80321;BME280;69633;47.066;15.450;2023-06-01T09:22:46;97667.34;;;27.19;35.36
80321;BME280;69633;47.066;15.450;2023-06-01T09:25:14;97675.00;;;27.62;34.84
80321;BME280;69633;47.066;15.450;2023-06-01T09:27:44;97673.34;;;27.39;34.78
80321;BME280;69633;47.066;15.450;2023-06-01T09:30:10;97666.47;;;27.35;35.11
80321;BME280;69633;47.066;15.450;2023-06-01T09:32:36;97662.00;;;27.28;35.51
80321;BME280;69633;47.066;15.450;2023-06-01T09:35:04;97660.13;;;27.13;35.91
80321;BME280;69633;47.066;15.450;2023-06-01T09:37:33;97667.91;;;27.39;35.81
80321;BME280;69633;47.066;15.450;2023-06-01T09:40:00;97664.28;;;27.43;36.08
80321;BME280;69633;47.066;15.450;2023-06-01T09:42:33;97664.72;;;27.28;36.47
80321;BME280;69633;47.066;15.450;2023-06-01T09:45:14;97662.97;;;27.09;36.33
80321;BME280;69633;47.066;15.450;2023-06-01T09:47:48;97662.00;;;27.03;36.84
80321;BME280;69633;47.066;15.450;2023-06-01T09:50:36;97656.13;;;27.17;36.50
80321;BME280;69633;47.066;15.450;2023-06-01T09:53:02;97649.03;;;27.20;36.54
80321;BME280;69633;47.066;15.450;2023-06-01T09:55:28;97649.13;;;27.42;36.47
80321;BME280;69633;47.066;15.450;2023-06-01T09:58:18;97640.78;;;27.83;36.24
80321;BME280;69633;47.066;15.450;2023-06-01T10:00:50;97646.22;;;27.96;35.49
80321;BME280;69633;47.066;15.450;2023-06-01T10:03:19;97652.84;;;27.73;36.35
80321;BME280;69633;47.066;15.450;2023-06-01T10:05:46;97648.25;;;27.70;35.71
80321;BME280;69633;47.066;15.450;2023-06-01T10:08:14;97648.16;;;27.61;36.19
80321;BME280;69633;47.066;15.450;2023-06-01T10:10:46;97647.88;;;27.93;35.79
80321;BME280;69633;47.066;15.450;2023-06-01T10:13:14;97642.84;;;28.04;35.90
80321;BME280;69633;47.066;15.450;2023-06-01T10:15:40;97640.50;;;27.68;36.26
80321;BME280;69633;47.066;15.450;2023-06-01T10:18:14;97623.59;;;27.61;36.55
80321;BME280;69633;47.066;15.450;2023-06-01T10:20:41;97625.13;;;27.11;37.56
80321;BME280;69633;47.066;15.450;2023-06-01T10:23:13;97627.72;;;26.77;38.17
80321;BME280;69633;47.066;15.450;2023-06-01T10:25:46;97627.41;;;27.38;36.84
80321;BME280;69633;47.066;15.450;2023-06-01T10:28:13;97625.25;;;27.58;36.84
80321;BME280;69633;47.066;15.450;2023-06-01T10:30:39;97624.47;;;27.20;37.72
80321;BME280;69633;47.066;15.450;2023-06-01T10:33:06;97614.00;;;26.93;37.95
80321;BME280;69633;47.066;15.450;2023-06-01T10:40:46;97614.91;;;27.03;37.36
80321;BME280;69633;47.066;15.450;2023-06-01T10:46:34;97615.75;;;27.12;36.71
80321;BME280;69633;47.066;15.450;2023-06-01T10:49:04;97609.75;;;27.05;37.50
80321;BME280;69633;47.066;15.450;2023-06-01T10:51:31;97606.06;;;26.99;37.80
80321;BME280;69633;47.066;15.450;2023-06-01T10:57:25;97596.69;;;26.58;37.34
80321;BME280;69633;47.066;15.450;2023-06-01T11:02:59;97596.69;;;26.17;37.78
80321;BME280;69633;47.066;15.450;2023-06-01T11:05:50;97591.72;;;26.82;36.73
80321;BME280;69633;47.066;15.450;2023-06-01T11:11:01;97596.31;;;27.61;35.31
80321;BME280;69633;47.066;15.450;2023-06-01T11:13:33;97585.94;;;27.68;34.68
80321;BME280;69633;47.066;15.450;2023-06-01T11:18:56;97581.03;;;28.10;34.96
80321;BME280;69633;47.066;15.450;2023-06-01T11:21:57;97581.03;;;27.98;34.43
80321;BME280;69633;47.066;15.450;2023-06-01T11:24:35;97573.13;;;28.12;34.71
80321;BME280;69633;47.066;15.450;2023-06-01T11:27:09;97569.28;;;27.54;35.49
80321;BME280;69633;47.066;15.450;2023-06-01T11:29:35;97573.31;;;27.96;35.38
80321;BME280;69633;47.066;15.450;2023-06-01T11:32:02;97568.38;;;28.47;34.02
80321;BME280;69633;47.066;15.450;2023-06-01T11:34:36;97564.72;;;28.41;34.15
80321;BME280;69633;47.066;15.450;2023-06-01T11:37:17;97565.00;;;28.00;34.82
80321;BME280;69633;47.066;15.450;2023-06-01T11:39:44;97562.69;;;27.98;33.79
80321;BME280;69633;47.066;15.450;2023-06-01T11:42:19;97567.88;;;28.40;33.56
80321;BME280;69633;47.066;15.450;2023-06-01T11:44:56;97554.72;;;28.47;32.70
80321;BME280;69633;47.066;15.450;2023-06-01T11:47:21;97559.75;;;28.49;32.62
80321;BME280;69633;47.066;15.450;2023-06-01T11:49:49;97555.19;;;28.46;32.66
80321;BME280;69633;47.066;15.450;2023-06-01T11:52:19;97557.38;;;28.60;32.90
80321;BME280;69633;47.066;15.450;2023-06-01T11:54:47;97544.44;;;28.82;33.27
80321;BME280;69633;47.066;15.450;2023-06-01T11:57:14;97537.19;;;28.88;32.40
80321;BME280;69633;47.066;15.450;2023-06-01T12:02:27;97527.94;;;29.44;32.29
80321;BME280;69633;47.066;15.450;2023-06-01T12:05:03;97519.28;;;29.82;31.34
80321;BME280;69633;47.066;15.450;2023-06-01T12:07:52;97531.34;;;30.02;31.73
80321;BME280;69633;47.066;15.450;2023-06-01T12:10:21;97522.19;;;30.05;30.96
80321;BME280;69633;47.066;15.450;2023-06-01T12:12:47;97510.38;;;30.41;30.57
80321;BME280;69633;47.066;15.450;2023-06-01T12:15:17;97515.63;;;30.81;30.72
80321;BME280;69633;47.066;15.450;2023-06-01T12:17:55;97512.44;;;30.74;30.66
80321;BME280;69633;47.066;15.450;2023-06-01T12:20:30;97495.53;;;30.33;31.26
80321;BME280;69633;47.066;15.450;2023-06-01T12:22:57;97501.97;;;30.03;31.27
80321;BME280;69633;47.066;15.450;2023-06-01T12:25:23;97488.63;;;30.38;31.13
80321;BME280;69633;47.066;15.450;2023-06-01T12:28:07;97493.16;;;29.81;31.52
80321;BME280;69633;47.066;15.450;2023-06-01T12:30:35;97487.69;;;29.81;31.98
80321;BME280;69633;47.066;15.450;2023-06-01T12:33:04;97483.22;;;30.19;31.02
80321;BME280;69633;47.066;15.450;2023-06-01T12:35:31;97488.69;;;30.19;31.18
80321;BME280;69633;47.066;15.450;2023-06-01T12:38:06;97494.03;;;29.96;31.39
80321;BME280;69633;47.066;15.450;2023-06-01T12:40:38;97472.84;;;30.23;30.24
80321;BME280;69633;47.066;15.450;2023-06-01T12:43:07;97475.38;;;30.87;29.93
80321;BME280;69633;47.066;15.450;2023-06-01T12:45:41;97473.81;;;31.43;29.17
80321;BME280;69633;47.066;15.450;2023-06-01T12:48:07;97462.72;;;31.76;28.88
80321;BME280;69633;47.066;15.450;2023-06-01T12:50:32;97460.41;;;31.98;28.99
80321;BME280;69633;47.066;15.450;2023-06-01T12:52:58;97462.84;;;31.81;28.37
80321;BME280;69633;47.066;15.450;2023-06-01T12:55:23;97452.66;;;32.26;28.35
80321;BME280;69633;47.066;15.450;2023-06-01T12:57:53;97455.88;;;32.24;28.18
80321;BME280;69633;47.066;15.450;2023-06-01T13:00:19;97451.13;;;32.25;28.35
80321;BME280;69633;47.066;15.450;2023-06-01T13:02:45;97451.69;;;32.29;27.82
80321;BME280;69633;47.066;15.450;2023-06-01T13:05:32;97447.59;;;31.95;28.86
80321;BME280;69633;47.066;15.450;2023-06-01T13:07:58;97445.41;;;31.70;29.38
80321;BME280;69633;47.066;15.450;2023-06-01T13:10:25;97431.59;;;30.69;29.49
80321;BME280;69633;47.066;15.450;2023-06-01T13:12:51;97440.56;;;30.37;30.85
80321;BME280;69633;47.066;15.450;2023-06-01T13:15:18;97432.78;;;30.77;30.22
80321;BME280;69633;47.066;15.450;2023-06-01T13:17:44;97433.47;;;31.58;28.58
80321;BME280;69633;47.066;15.450;2023-06-01T13:20:11;97428.00;;;32.46;27.37
80321;BME280;69633;47.066;15.450;2023-06-01T13:22:38;97426.34;;;32.89;26.54
80321;BME280;69633;47.066;15.450;2023-06-01T13:25:04;97415.78;;;33.22;27.05
80321;BME280;69633;47.066;15.450;2023-06-01T13:27:32;97396.97;;;33.41;26.06
80321;BME280;69633;47.066;15.450;2023-06-01T13:30:01;97407.72;;;33.59;26.53
80321;BME280;69633;47.066;15.450;2023-06-01T13:32:28;97399.03;;;33.66;26.04
80321;BME280;69633;47.066;15.450;2023-06-01T13:34:58;97389.06;;;33.48;25.84